createdAt,value
2023-07-04T00:00:06.236Z,7.78
2023-07-04T00:02:09.228Z,7.80
2023-07-04T00:04:13.527Z,7.45
2023-07-04T00:06:18.667Z,8.43
2023-07-04T00:08:24.669Z,8.15
2023-07-04T00:10:27.525Z,7.78
2023-07-04T00:12:32.762Z,8.10
2023-07-04T00:14:35.478Z,8.63
2023-07-04T00:16:39.058Z,9.02
2023-07-04T00:18:42.516Z,9.38
2023-07-04T00:20:45.673Z,9.43
2023-07-04T00:22:48.622Z,8.63
2023-07-04T00:24:51.321Z,8.85
2023-07-04T00:26:57.792Z,8.80
2023-07-04T00:29:00.773Z,9.95
2023-07-04T00:31:04.433Z,10.23
2023-07-04T00:33:07.625Z,10.95
2023-07-04T00:35:10.390Z,10.05
2023-07-04T00:37:13.904Z,8.88
2023-07-04T00:39:17.297Z,9.88
2023-07-04T00:41:23.305Z,9.68
2023-07-04T00:43:26.132Z,9.95
2023-07-04T00:45:29.031Z,9.00
2023-07-04T00:47:44.692Z,9.13
2023-07-04T00:49:51.177Z,8.88
2023-07-04T00:52:08.175Z,9.55
2023-07-04T00:54:11.145Z,9.20
2023-07-04T00:56:14.272Z,10.30
2023-07-04T00:58:18.239Z,10.30
2023-07-04T01:00:21.651Z,9.02
2023-07-04T01:02:28.722Z,11.25
2023-07-04T01:04:34.311Z,10.65
2023-07-04T01:06:46.643Z,10.43
2023-07-04T01:08:57.573Z,9.88
2023-07-04T01:11:04.618Z,9.68
2023-07-04T01:13:37.472Z,9.82
2023-07-04T01:15:40.335Z,9.23
2023-07-04T01:17:43.949Z,9.52
2023-07-04T01:19:47.731Z,10.25
2023-07-04T01:21:56.703Z,8.82
2023-07-04T01:24:13.706Z,9.88
2023-07-04T01:26:28.178Z,10.70
2023-07-04T01:28:31.339Z,9.00
2023-07-04T01:30:40.230Z,8.60
2023-07-04T01:32:44.038Z,9.15
2023-07-04T01:34:49.100Z,9.10
2023-07-04T01:36:52.000Z,9.23
2023-07-04T01:38:55.070Z,9.20
2023-07-04T01:40:57.948Z,9.27
2023-07-04T01:43:01.210Z,8.88
2023-07-04T01:45:06.842Z,8.88
2023-07-04T01:47:10.728Z,7.95
2023-07-04T01:49:14.089Z,8.70
2023-07-04T01:51:16.925Z,8.48
2023-07-04T01:53:19.648Z,8.63
2023-07-04T01:55:22.705Z,9.25
2023-07-04T01:57:26.105Z,8.82
2023-07-04T01:59:28.838Z,7.80
2023-07-04T02:01:32.060Z,8.80
2023-07-04T02:03:36.194Z,6.65
2023-07-04T02:05:39.877Z,7.85
2023-07-04T02:07:42.775Z,7.72
2023-07-04T02:09:45.569Z,7.60
2023-07-04T02:11:48.436Z,7.75
2023-07-04T02:13:51.292Z,7.45
2023-07-04T02:15:54.236Z,6.53
2023-07-04T02:17:58.877Z,7.47
2023-07-04T02:20:01.868Z,7.68
2023-07-04T02:22:08.677Z,6.47
2023-07-04T02:24:11.816Z,6.68
2023-07-04T02:26:14.580Z,7.53
2023-07-04T02:28:17.298Z,6.50
2023-07-04T02:30:20.132Z,6.95
2023-07-04T02:32:22.948Z,6.78
2023-07-04T02:34:25.834Z,6.78
2023-07-04T02:36:28.625Z,6.30
2023-07-04T02:38:31.479Z,6.72
2023-07-04T02:40:34.335Z,7.20
2023-07-04T02:42:37.180Z,7.07
2023-07-04T02:44:40.033Z,7.50
2023-07-04T02:46:42.793Z,6.57
2023-07-04T02:48:45.701Z,7.72
2023-07-04T02:50:48.602Z,6.45
2023-07-04T02:52:51.320Z,7.20
2023-07-04T02:54:54.363Z,6.90
2023-07-04T02:56:57.096Z,7.03
2023-07-04T02:58:59.779Z,5.43
2023-07-04T03:01:04.951Z,6.35
2023-07-04T03:03:08.031Z,6.60
2023-07-04T03:05:11.111Z,6.75
2023-07-04T03:07:14.149Z,6.97
2023-07-04T03:09:16.915Z,6.35
2023-07-04T03:11:19.732Z,7.15
2023-07-04T03:13:22.616Z,6.13
2023-07-04T03:15:25.707Z,5.82
2023-07-04T03:17:28.550Z,6.30
2023-07-04T03:19:31.277Z,5.70
2023-07-04T03:21:34.141Z,6.38
2023-07-04T03:23:36.930Z,5.65
2023-07-04T03:25:39.766Z,6.55
2023-07-04T03:27:43.097Z,5.40
2023-07-04T03:29:45.838Z,5.68
2023-07-04T03:31:48.530Z,5.13
2023-07-04T03:33:52.049Z,4.60
2023-07-04T03:35:59.614Z,5.45
2023-07-04T03:38:03.152Z,5.15
2023-07-04T03:40:11.357Z,4.95
2023-07-04T03:42:14.350Z,4.95
2023-07-04T03:44:17.082Z,5.00
2023-07-04T03:46:19.982Z,4.93
2023-07-04T03:48:24.092Z,4.45
2023-07-04T03:50:26.902Z,4.20
2023-07-04T03:52:30.183Z,5.25
2023-07-04T03:54:33.263Z,5.13
2023-07-04T03:56:36.006Z,4.65
2023-07-04T03:58:38.790Z,4.63
2023-07-04T04:00:41.561Z,4.47
2023-07-04T04:02:44.481Z,4.47
2023-07-04T04:04:48.453Z,4.38
2023-07-04T04:06:53.259Z,5.00
2023-07-04T04:08:55.988Z,4.85
2023-07-04T04:10:58.950Z,4.70
2023-07-04T04:13:01.846Z,4.68
2023-07-04T04:15:05.458Z,4.72
2023-07-04T04:17:08.391Z,4.63
2023-07-04T04:19:11.133Z,4.95
2023-07-04T04:21:14.094Z,5.05
2023-07-04T04:23:17.335Z,4.80
2023-07-04T04:25:20.769Z,4.32
2023-07-04T04:27:23.739Z,4.78
2023-07-04T04:29:27.538Z,5.22
2023-07-04T04:31:30.800Z,4.88
2023-07-04T04:33:34.121Z,5.65
2023-07-04T04:35:40.358Z,5.63
2023-07-04T04:37:43.281Z,5.45
2023-07-04T04:39:46.148Z,5.13
2023-07-04T04:41:53.796Z,5.18
2023-07-04T04:43:57.962Z,5.07
2023-07-04T04:46:01.834Z,5.13
2023-07-04T04:48:07.631Z,4.78
2023-07-04T04:50:11.017Z,5.68
2023-07-04T04:52:13.782Z,4.88
2023-07-04T04:54:17.274Z,5.05
2023-07-04T04:56:20.169Z,4.80
2023-07-04T04:58:23.021Z,5.18
2023-07-04T05:00:25.829Z,4.38
2023-07-04T05:02:32.587Z,4.78
2023-07-04T05:04:35.590Z,4.60
2023-07-04T05:06:38.425Z,4.03
2023-07-04T05:08:41.171Z,3.58
2023-07-04T05:10:43.987Z,3.65
2023-07-04T05:12:46.756Z,4.10
2023-07-04T05:14:49.668Z,3.97
2023-07-04T05:16:52.357Z,4.38
2023-07-04T05:18:55.514Z,3.55
2023-07-04T05:21:16.773Z,4.10
2023-07-04T05:23:19.967Z,4.47
2023-07-04T05:25:23.682Z,3.92
2023-07-04T05:27:26.627Z,3.75
2023-07-04T05:29:29.370Z,4.07
2023-07-04T05:31:33.906Z,4.25
2023-07-04T05:33:38.010Z,4.10
2023-07-04T05:35:40.748Z,3.47
2023-07-04T05:37:45.141Z,4.13
2023-07-04T05:39:48.047Z,3.55
2023-07-04T05:41:50.676Z,4.18
2023-07-04T05:43:56.250Z,4.05
2023-07-04T05:45:59.160Z,4.30
2023-07-04T05:48:02.078Z,4.40
2023-07-04T05:50:05.262Z,4.15
2023-07-04T05:52:08.490Z,3.88
2023-07-04T05:54:11.248Z,3.92
2023-07-04T05:56:23.460Z,3.90
2023-07-04T05:58:26.329Z,4.25
2023-07-04T06:00:29.295Z,4.10
2023-07-04T06:02:33.291Z,3.60
2023-07-04T06:04:36.429Z,4.50
2023-07-04T06:06:42.602Z,4.00
2023-07-04T06:08:45.539Z,4.18
2023-07-04T06:10:59.007Z,3.80
2023-07-04T06:13:01.798Z,3.72
2023-07-04T06:15:05.100Z,3.75
2023-07-04T06:17:08.331Z,3.42
2023-07-04T06:19:11.196Z,3.53
2023-07-04T06:21:27.144Z,4.95
2023-07-04T06:23:37.572Z,4.20
2023-07-04T06:25:40.428Z,4.30
2023-07-04T06:27:45.617Z,4.70
2023-07-04T06:29:48.974Z,3.58
2023-07-04T06:31:51.958Z,4.68
2023-07-04T06:33:58.328Z,3.78
2023-07-04T06:36:01.912Z,3.80
2023-07-04T06:38:04.625Z,3.95
2023-07-04T06:40:08.178Z,3.42
2023-07-04T06:42:11.024Z,3.78
2023-07-04T06:44:13.676Z,3.25
2023-07-04T06:46:20.217Z,3.05
2023-07-04T06:48:24.472Z,3.65
2023-07-04T06:50:27.822Z,3.85
2023-07-04T06:52:31.989Z,3.92
2023-07-04T06:54:35.742Z,4.38
2023-07-04T06:56:39.366Z,3.53
2023-07-04T06:58:56.038Z,3.92
2023-07-04T07:00:58.914Z,3.47
2023-07-04T07:03:01.794Z,3.60
2023-07-04T07:05:06.419Z,3.42
2023-07-04T07:07:11.439Z,3.38
2023-07-04T07:09:14.373Z,3.53
2023-07-04T07:11:19.247Z,3.30
2023-07-04T07:13:22.262Z,4.60
2023-07-04T07:15:26.633Z,3.40
2023-07-04T07:17:29.487Z,2.92
2023-07-04T07:19:32.963Z,3.53
2023-07-04T07:21:36.627Z,3.15
2023-07-04T07:23:40.799Z,3.00
2023-07-04T07:25:43.610Z,3.58
2023-07-04T07:27:46.368Z,3.50
2023-07-04T07:29:49.727Z,3.45
2023-07-04T07:31:52.638Z,2.80
2023-07-04T07:33:55.800Z,3.08
2023-07-04T07:35:59.526Z,2.75
2023-07-04T07:38:02.444Z,3.72
2023-07-04T07:40:05.804Z,3.25
2023-07-04T07:42:08.712Z,3.40
2023-07-04T07:44:12.530Z,3.00
2023-07-04T07:46:17.846Z,2.88
2023-07-04T07:48:20.725Z,3.53
2023-07-04T07:50:23.543Z,3.42
2023-07-04T07:52:26.419Z,2.83
2023-07-04T07:54:29.456Z,2.70
2023-07-04T07:56:45.652Z,2.50
2023-07-04T07:58:49.753Z,2.50
2023-07-04T08:00:52.798Z,3.05
2023-07-04T08:02:55.841Z,2.60
2023-07-04T08:04:58.701Z,4.30
2023-07-04T08:07:01.458Z,3.15
2023-07-04T08:09:06.249Z,3.17
2023-07-04T08:11:14.814Z,2.90
2023-07-04T08:13:19.396Z,3.22
2023-07-04T08:15:22.337Z,2.38
2023-07-04T08:17:25.235Z,3.90
2023-07-04T08:19:28.399Z,2.97
2023-07-04T08:21:31.231Z,2.80
2023-07-04T08:23:34.534Z,2.90
2023-07-04T08:25:40.254Z,2.90
2023-07-04T08:27:43.371Z,3.00
2023-07-04T08:29:48.708Z,2.65
2023-07-04T08:31:52.089Z,3.25
2023-07-04T08:33:54.985Z,2.80
2023-07-04T08:36:04.089Z,3.65
2023-07-04T08:38:06.806Z,3.05
2023-07-04T08:40:12.601Z,3.53
2023-07-04T08:42:18.401Z,2.70
2023-07-04T08:44:23.933Z,3.15
2023-07-04T08:46:33.904Z,2.45
2023-07-04T08:48:37.887Z,3.13
2023-07-04T08:50:41.591Z,3.45
2023-07-04T08:53:05.545Z,3.35
2023-07-04T08:55:14.850Z,3.42
2023-07-04T08:57:39.323Z,3.28
2023-07-04T08:59:45.359Z,3.30
2023-07-04T09:02:05.957Z,2.95
2023-07-04T09:04:24.721Z,2.95
2023-07-04T09:07:02.963Z,2.83
2023-07-04T09:09:33.366Z,2.80
2023-07-04T09:11:37.190Z,2.50
2023-07-04T09:13:43.695Z,3.40
2023-07-04T09:15:49.104Z,2.63
2023-07-04T09:18:20.170Z,3.15
2023-07-04T09:20:25.396Z,2.92
2023-07-04T09:22:28.989Z,3.55
2023-07-04T09:24:32.913Z,2.58
2023-07-04T09:26:51.393Z,3.00
2023-07-04T09:28:57.081Z,3.10
2023-07-04T09:31:01.067Z,3.40
2023-07-04T09:33:03.985Z,3.60
2023-07-04T09:35:08.071Z,2.63
2023-07-04T09:37:15.204Z,2.63
2023-07-04T09:39:18.110Z,2.97
2023-07-04T09:41:26.851Z,8.68
2023-07-04T09:43:31.575Z,4.57
2023-07-04T09:45:35.088Z,3.33
2023-07-04T09:47:42.317Z,4.97
2023-07-04T09:49:45.833Z,3.10
2023-07-04T09:52:18.828Z,3.05
2023-07-04T09:54:21.581Z,3.20
2023-07-04T09:56:28.246Z,3.15
2023-07-04T09:58:31.255Z,3.08
2023-07-04T10:00:34.232Z,3.75
2023-07-04T10:02:37.134Z,3.13
2023-07-04T10:04:42.147Z,2.97
2023-07-04T10:06:45.935Z,3.20
2023-07-04T10:08:57.230Z,2.65
2023-07-04T10:11:00.671Z,2.97
2023-07-04T10:13:03.872Z,2.90
2023-07-04T10:15:07.671Z,2.97
2023-07-04T10:17:16.707Z,2.58
2023-07-04T10:19:24.454Z,2.38
2023-07-04T10:21:27.466Z,2.92
2023-07-04T10:23:31.593Z,2.65
2023-07-04T10:25:34.912Z,2.38
2023-07-04T10:27:39.284Z,2.67
2023-07-04T10:29:47.918Z,3.20
2023-07-04T10:31:51.046Z,2.50
2023-07-04T10:34:05.574Z,3.47
2023-07-04T10:36:12.297Z,2.38
2023-07-04T10:38:33.869Z,2.90
2023-07-04T10:40:40.477Z,3.00
2023-07-04T10:42:49.284Z,2.40
2023-07-04T10:44:54.561Z,2.80
2023-07-04T10:47:11.467Z,2.75
2023-07-04T10:49:20.428Z,3.28
2023-07-04T10:51:29.365Z,2.97
2023-07-04T10:53:32.057Z,3.70
2023-07-04T10:55:37.515Z,3.13
2023-07-04T10:57:46.215Z,2.83
2023-07-04T10:59:52.268Z,2.92
2023-07-04T11:02:11.964Z,3.65
2023-07-04T11:04:29.990Z,4.43
2023-07-04T11:06:44.099Z,4.55
2023-07-04T11:08:48.303Z,4.65
2023-07-04T11:11:00.991Z,4.80
2023-07-04T11:13:04.040Z,4.00
2023-07-04T11:15:19.536Z,3.03
2023-07-04T11:17:23.139Z,2.70
2023-07-04T11:19:28.310Z,2.72
2023-07-04T11:21:31.844Z,2.50
2023-07-04T11:24:09.340Z,3.13
2023-07-04T11:26:12.391Z,2.60
2023-07-04T11:28:36.345Z,3.15
2023-07-04T11:30:42.810Z,2.70
2023-07-04T11:32:56.180Z,2.70
2023-07-04T11:35:15.802Z,2.83
2023-07-04T11:37:25.452Z,3.13
2023-07-04T11:39:39.856Z,2.67
2023-07-04T11:41:43.476Z,3.35
2023-07-04T11:43:48.572Z,3.13
2023-07-04T11:45:55.840Z,3.05
2023-07-04T11:48:04.774Z,2.33
2023-07-04T11:50:15.274Z,2.30
2023-07-04T11:52:22.045Z,2.42
2023-07-04T11:54:27.142Z,2.90
2023-07-04T11:56:29.878Z,2.33
2023-07-04T11:58:32.671Z,2.10
2023-07-04T12:00:41.037Z,2.17
2023-07-04T12:02:46.911Z,2.75
2023-07-04T12:04:50.623Z,2.63
2023-07-04T12:07:00.424Z,2.90
2023-07-04T12:09:03.658Z,2.70
2023-07-04T12:11:09.672Z,2.50
2023-07-04T12:13:22.047Z,2.92
2023-07-04T12:15:31.144Z,2.53
2023-07-04T12:17:34.964Z,2.90
2023-07-04T12:19:37.796Z,2.97
2023-07-04T12:21:44.009Z,2.97
2023-07-04T12:23:48.121Z,2.95
2023-07-04T12:25:53.563Z,2.47
2023-07-04T12:27:59.748Z,2.72
2023-07-04T12:30:04.507Z,2.75
2023-07-04T12:32:13.946Z,2.30
2023-07-04T12:34:25.390Z,2.63
2023-07-04T12:36:36.164Z,2.95
2023-07-04T12:38:50.062Z,3.30
2023-07-04T12:40:53.600Z,2.80
2023-07-04T12:44:37.461Z,2.50
2023-07-04T12:45:30.990Z,2.53
2023-07-04T12:47:36.955Z,3.20
2023-07-04T12:49:40.110Z,3.10
2023-07-04T12:51:46.064Z,3.65
2023-07-04T12:53:50.357Z,2.75
2023-07-04T12:55:57.725Z,2.95
2023-07-04T12:58:02.171Z,2.63
2023-07-04T13:00:15.936Z,2.90
2023-07-04T13:02:27.263Z,3.17
2023-07-04T13:04:30.208Z,3.33
2023-07-04T13:06:33.359Z,2.65
2023-07-04T13:08:48.436Z,3.03
2023-07-04T13:10:55.153Z,2.70
2023-07-04T13:12:58.176Z,2.17
2023-07-04T13:15:09.752Z,2.22
2023-07-04T13:17:13.984Z,2.70
2023-07-04T13:19:19.965Z,2.47
2023-07-04T13:21:32.920Z,2.58
2023-07-04T13:25:47.057Z,1.98
2023-07-04T13:30:21.790Z,2.22
2023-07-04T13:30:32.782Z,3.00
2023-07-04T13:34:47.385Z,3.05
2023-07-04T13:37:02.180Z,2.20
2023-07-04T13:41:13.263Z,2.72
2023-07-04T13:45:23.067Z,2.80
2023-07-04T13:47:25.970Z,2.42
2023-07-04T13:49:28.990Z,2.63
2023-07-04T13:51:32.291Z,1.83
2023-07-04T13:53:35.203Z,2.45
2023-07-04T13:55:38.019Z,2.65
2023-07-04T13:57:40.797Z,2.40
2023-07-04T13:59:44.180Z,2.80
2023-07-04T14:06:00.619Z,2.20
2023-07-04T14:08:04.137Z,2.50
2023-07-04T14:10:12.423Z,2.20
2023-07-04T14:12:23.442Z,2.28
2023-07-04T14:20:44.875Z,2.60
2023-07-04T14:22:47.801Z,2.17
2023-07-04T14:24:50.753Z,2.30
2023-07-04T14:26:54.512Z,2.83
2023-07-04T14:28:57.264Z,2.28
2023-07-04T14:31:00.147Z,2.15
2023-07-04T14:33:03.163Z,2.22
2023-07-04T14:35:06.888Z,1.77
2023-07-04T14:37:10.120Z,2.53
2023-07-04T14:39:13.505Z,2.47
2023-07-04T14:43:21.829Z,2.15
2023-07-04T14:45:24.701Z,3.35
2023-07-04T14:47:27.654Z,2.72
2023-07-04T14:49:30.458Z,2.40
2023-07-04T14:51:33.275Z,2.10
2023-07-04T14:53:37.777Z,1.45
2023-07-04T14:55:40.728Z,2.70
2023-07-04T14:57:44.912Z,2.70
2023-07-04T14:59:48.431Z,2.38
2023-07-04T15:01:51.520Z,1.80
2023-07-04T15:04:00.276Z,2.10
2023-07-04T15:06:08.641Z,1.85
2023-07-04T15:08:12.073Z,2.55
2023-07-04T15:10:16.947Z,2.50
2023-07-04T15:12:20.710Z,2.25
2023-07-04T15:14:24.081Z,2.17
2023-07-04T15:16:27.059Z,1.58
2023-07-04T15:18:38.786Z,2.40
2023-07-04T15:20:41.638Z,2.35
2023-07-04T15:22:44.578Z,2.22
2023-07-04T15:24:47.386Z,1.77
2023-07-04T15:26:50.270Z,1.83
2023-07-04T15:28:55.390Z,1.88
2023-07-04T15:30:58.483Z,2.22
2023-07-04T15:33:01.286Z,1.63
2023-07-04T15:35:05.232Z,2.40
2023-07-04T15:37:11.219Z,2.58
2023-07-04T15:39:16.426Z,2.35
2023-07-04T15:41:22.900Z,2.28
2023-07-04T15:43:28.024Z,2.30
2023-07-04T15:45:32.263Z,2.78
2023-07-04T15:47:35.018Z,2.42
2023-07-04T15:49:37.728Z,2.58
2023-07-04T15:51:41.196Z,3.83
2023-07-04T15:53:44.737Z,2.90
2023-07-04T15:55:48.071Z,4.18
2023-07-04T15:57:51.032Z,4.43
2023-07-04T15:59:54.302Z,3.05
2023-07-04T16:01:57.390Z,2.83
2023-07-04T16:04:01.780Z,6.68
2023-07-04T16:06:08.137Z,2.97
2023-07-04T16:08:12.259Z,2.20
2023-07-04T16:10:15.510Z,2.78
2023-07-04T16:12:19.046Z,2.13
2023-07-04T16:14:22.184Z,2.55
2023-07-04T16:16:27.520Z,2.75
2023-07-04T16:18:30.855Z,2.33
2023-07-04T16:20:34.707Z,2.55
2023-07-04T16:22:37.974Z,2.38
2023-07-04T16:24:41.182Z,2.80
2023-07-04T16:26:44.282Z,2.03
2023-07-04T16:28:47.624Z,2.40
2023-07-04T16:30:51.364Z,2.42
2023-07-04T16:32:54.635Z,2.20
2023-07-04T16:34:57.624Z,2.78
2023-07-04T16:37:00.841Z,2.88
2023-07-04T16:39:03.948Z,2.17
2023-07-04T16:41:13.145Z,2.33
2023-07-04T16:43:16.607Z,2.13
2023-07-04T16:45:20.391Z,2.88
2023-07-04T16:47:23.736Z,2.20
2023-07-04T16:49:27.462Z,2.80
2023-07-04T16:51:30.695Z,2.10
2023-07-04T16:53:33.978Z,2.67
2023-07-04T16:55:39.056Z,1.95
2023-07-04T16:57:43.207Z,2.67
2023-07-04T16:59:46.957Z,3.35
2023-07-04T17:01:50.124Z,2.97
2023-07-04T17:03:53.436Z,3.22
2023-07-04T17:06:01.945Z,2.88
2023-07-04T17:08:05.182Z,3.05
2023-07-04T17:10:09.227Z,2.72
2023-07-04T17:12:12.310Z,3.40
2023-07-04T17:14:15.393Z,3.33
2023-07-04T17:16:18.446Z,3.65
2023-07-04T17:18:21.526Z,2.83
2023-07-04T17:20:24.388Z,2.72
2023-07-04T17:22:27.364Z,2.70
2023-07-04T17:24:30.423Z,2.70
2023-07-04T17:26:33.573Z,2.65
2023-07-04T17:28:36.867Z,2.38
2023-07-04T17:30:40.817Z,2.35
2023-07-04T17:32:44.266Z,2.53
2023-07-04T17:34:47.331Z,2.70
2023-07-04T17:36:50.615Z,3.03
2023-07-04T17:38:53.598Z,2.80
2023-07-04T17:41:05.301Z,2.80
2023-07-04T17:43:08.175Z,2.20
2023-07-04T17:45:11.312Z,3.03
2023-07-04T17:47:14.163Z,2.65
2023-07-04T17:49:16.956Z,3.13
2023-07-04T17:51:22.677Z,3.97
2023-07-04T17:53:25.632Z,2.80
2023-07-04T17:55:28.860Z,2.97
2023-07-04T17:57:31.697Z,3.10
2023-07-04T17:59:34.533Z,3.30
2023-07-04T18:01:37.385Z,3.00
2023-07-04T18:03:41.821Z,3.00
2023-07-04T18:05:44.840Z,3.28
2023-07-04T18:07:47.541Z,2.42
2023-07-04T18:09:52.029Z,3.03
2023-07-04T18:11:54.895Z,3.22
2023-07-04T18:13:58.973Z,3.53
2023-07-04T18:16:02.019Z,3.53
2023-07-04T18:18:04.896Z,2.92
2023-07-04T18:20:08.424Z,3.30
2023-07-04T18:22:11.900Z,2.88
2023-07-04T18:24:14.787Z,3.70
2023-07-04T18:26:18.160Z,3.00
2023-07-04T18:28:21.911Z,3.13
2023-07-04T18:30:24.684Z,3.38
2023-07-04T18:32:27.422Z,3.20
2023-07-04T18:34:30.362Z,3.35
2023-07-04T18:36:38.537Z,3.47
2023-07-04T18:38:42.657Z,2.45
2023-07-04T18:40:52.332Z,3.13
2023-07-04T18:42:55.790Z,3.17
2023-07-04T18:44:58.787Z,3.47
2023-07-04T18:47:01.854Z,3.85
2023-07-04T18:49:06.498Z,3.63
2023-07-04T18:51:21.103Z,4.00
2023-07-04T18:53:23.900Z,3.67
2023-07-04T18:55:26.574Z,3.38
2023-07-04T18:57:29.821Z,3.90
2023-07-04T18:59:32.738Z,4.20
2023-07-04T19:01:36.221Z,3.95
2023-07-04T19:03:39.748Z,3.97
2023-07-04T19:05:43.030Z,4.30
2023-07-04T19:07:45.800Z,3.90
2023-07-04T19:09:48.581Z,3.92
2023-07-04T19:11:52.441Z,3.45
2023-07-04T19:14:07.105Z,4.30
2023-07-04T19:16:10.919Z,4.53
2023-07-04T19:18:13.947Z,4.53
2023-07-04T19:20:16.832Z,4.45
2023-07-04T19:22:19.849Z,3.83
2023-07-04T19:24:24.408Z,3.40
2023-07-04T19:26:27.620Z,4.32
2023-07-04T19:28:30.442Z,4.10
2023-07-04T19:30:37.034Z,3.78
2023-07-04T19:32:39.820Z,4.45
2023-07-04T19:34:43.088Z,4.78
2023-07-04T19:36:46.545Z,4.72
2023-07-04T19:38:50.154Z,4.32
2023-07-04T19:40:57.992Z,3.78
2023-07-04T19:43:00.785Z,4.65
2023-07-04T19:45:03.702Z,3.83
2023-07-04T19:47:07.448Z,4.13
2023-07-04T19:49:10.646Z,4.35
2023-07-04T19:51:19.842Z,4.70
2023-07-04T19:53:22.878Z,4.00
2023-07-04T19:55:25.775Z,4.22
2023-07-04T19:57:29.402Z,3.97
2023-07-04T19:59:32.329Z,4.13
2023-07-04T20:01:37.660Z,4.07
2023-07-04T20:03:41.999Z,4.63
2023-07-04T20:05:44.965Z,4.90
2023-07-04T20:07:47.672Z,4.90
2023-07-04T20:09:50.457Z,4.43
2023-07-04T20:11:53.363Z,5.50
2023-07-04T20:13:56.374Z,5.22
2023-07-04T20:16:01.498Z,4.78
2023-07-04T20:18:04.457Z,5.00
2023-07-04T20:20:08.165Z,4.43
2023-07-04T20:22:11.963Z,5.35
2023-07-04T20:24:14.828Z,4.72
2023-07-04T20:26:19.894Z,5.45
2023-07-04T20:28:24.433Z,4.57
2023-07-04T20:30:31.617Z,4.15
2023-07-04T20:32:34.556Z,4.75
2023-07-04T20:34:37.636Z,5.10
2023-07-04T20:36:40.460Z,3.75
2023-07-04T20:38:43.557Z,4.18
2023-07-04T20:40:47.502Z,4.57
2023-07-04T20:42:50.681Z,4.55
2023-07-04T20:44:54.123Z,3.95
2023-07-04T20:47:00.488Z,4.20
2023-07-04T20:49:04.138Z,4.35
2023-07-04T20:51:10.543Z,3.95
2023-07-04T20:53:14.045Z,3.53
2023-07-04T20:55:17.440Z,4.32
2023-07-04T20:57:20.509Z,3.95
2023-07-04T20:59:25.130Z,3.42
2023-07-04T21:01:28.203Z,3.63
2023-07-04T21:03:31.401Z,3.53
2023-07-04T21:05:35.379Z,4.32
2023-07-04T21:07:42.469Z,3.65
2023-07-04T21:09:45.624Z,3.83
2023-07-04T21:11:48.444Z,4.53
2023-07-04T21:13:51.402Z,3.75
2023-07-04T21:15:54.521Z,4.30
2023-07-04T21:17:58.047Z,3.15
2023-07-04T21:20:01.574Z,4.07
2023-07-04T21:22:06.540Z,3.67
2023-07-04T21:24:10.350Z,3.55
2023-07-04T21:26:13.061Z,3.45
2023-07-04T21:28:15.812Z,3.63
2023-07-04T21:30:19.132Z,3.13
2023-07-04T21:32:21.988Z,2.65
2023-07-04T21:34:24.810Z,3.35
2023-07-04T21:36:27.653Z,3.60
2023-07-04T21:38:30.923Z,3.17
2023-07-04T21:40:35.230Z,4.57
2023-07-04T21:42:37.887Z,3.60
2023-07-04T21:44:41.138Z,2.72
2023-07-04T21:46:44.493Z,3.63
2023-07-04T21:48:47.259Z,3.20
2023-07-04T21:50:52.215Z,2.70
2023-07-04T21:52:54.874Z,3.58
2023-07-04T21:54:57.629Z,3.40
2023-07-04T21:57:01.259Z,3.05
2023-07-04T21:59:04.337Z,3.20
2023-07-04T22:01:08.174Z,3.50
2023-07-04T22:03:11.229Z,3.72
2023-07-04T22:05:14.018Z,4.30
2023-07-04T22:07:16.941Z,3.42
2023-07-04T22:09:20.583Z,3.47
2023-07-04T22:11:23.714Z,3.10
2023-07-04T22:13:28.396Z,3.15
2023-07-04T22:15:31.439Z,4.10
2023-07-04T22:17:34.308Z,3.70
2023-07-04T22:19:37.097Z,3.38
2023-07-04T22:21:40.035Z,3.35
2023-07-04T22:23:43.217Z,3.28
2023-07-04T22:25:46.107Z,3.35
2023-07-04T22:27:48.841Z,3.10
2023-07-04T22:29:51.559Z,3.33
2023-07-04T22:31:54.327Z,3.13
2023-07-04T22:34:04.161Z,3.53
2023-07-04T22:36:06.972Z,3.40
2023-07-04T22:38:09.731Z,3.08
2023-07-04T22:40:12.745Z,3.47
2023-07-04T22:42:15.560Z,3.55
2023-07-04T22:44:18.344Z,3.40
2023-07-04T22:46:22.365Z,3.80
2023-07-04T22:48:27.339Z,2.88
2023-07-04T22:50:30.153Z,3.20
2023-07-04T22:52:32.956Z,3.92
2023-07-04T22:54:35.673Z,3.58
2023-07-04T22:56:38.400Z,3.35
2023-07-04T22:58:41.176Z,3.10
2023-07-04T23:00:44.259Z,3.30
2023-07-04T23:02:49.255Z,4.05
2023-07-04T23:04:52.341Z,3.30
2023-07-04T23:06:55.258Z,3.70
2023-07-04T23:08:58.072Z,3.60
2023-07-04T23:11:01.179Z,3.17
2023-07-04T23:13:03.944Z,3.55
2023-07-04T23:15:07.237Z,3.53
2023-07-04T23:17:12.676Z,3.83
2023-07-04T23:19:15.462Z,3.38
2023-07-04T23:21:19.989Z,3.28
2023-07-04T23:23:23.035Z,3.90
2023-07-04T23:25:28.523Z,3.28
2023-07-04T23:27:31.784Z,3.60
2023-07-04T23:29:34.588Z,3.75
2023-07-04T23:31:37.256Z,3.53
2023-07-04T23:33:41.781Z,3.25
2023-07-04T23:35:44.454Z,3.80
2023-07-04T23:37:47.280Z,3.25
2023-07-04T23:39:50.355Z,3.58
2023-07-04T23:41:53.099Z,3.53
2023-07-04T23:43:55.837Z,3.28
2023-07-04T23:45:59.013Z,3.38
2023-07-04T23:48:02.092Z,3.42
2023-07-04T23:50:05.366Z,3.22
2023-07-04T23:52:08.376Z,3.45
2023-07-04T23:54:11.424Z,3.22
2023-07-04T23:56:14.196Z,3.50
2023-07-04T23:58:16.957Z,3.22
